So, 24. September 2017 @ 05:19 (Europe/Berlin) | Zeitzone Wählen

Suche

Suche

Finde die Ligen und Manschaften schnell

Vergleich

Vergleich

Hier Klicken h2h um die Manschaften zu vergleichen und statistiken anzuzeigen

Spiele

Spiele

Schau dir die Heutige, Morgige, Gestrige Spiele mit Hilfe des Kalenders an


Gratis Tippen!

Spiele - 23.09.2017

Gruppierung: Nach Meisterschaften | Nach Zeit
Zeit Heim Ergebnis Gast 1 X 2 H2H
 Fußball Albanien Super League 2017/2018
14:00 Lushnja KS 0 : 0 Kamza KS - - -
14:00 Luftëtari Gjirokastër 0 : 0 Vllaznia Shkodër - - -
19:00 Skenderbeu Korca 2 : 0 Partizani Tirana - - -
 Fußball Argentinien Primera Division 2017/2018
00:05 Belgrano 0 : 0 Tigre Victoria 1.97 3.06 3.80
02:05 Patronato Parana 2 : 1 Atlético Tucumán 2.26 3.06 2.95
19:05 Huracán 0 : 0 Union Santa Fe 2.02 3.00 3.70
19:05 Arsenal de Sarandí 0 : 1 Temperley 2.02 3.04 3.62
21:15 Chacarita 0 : 1 Talleres 3.34 3.01 2.14
23:05 Velez Sarsfield - : - Boca Juniors 3.85 3.20 1.87
 Fußball Belgien 1e Klasse 2017/2018
18:00 Genk 1 : 1 Oostende 1.60 3.90 5.18
20:00 Mouscron 3 : 2 Eupen 1.97 3.51 3.54
20:00 Mechelen 2 : 0 St. Truidense 2.28 3.23 3.05
20:30 Waasland 1 : 2 Anderlecht 4.76 3.79 1.66
 Fußball Belgien 2e Klasse 2017/2018
17:00 Cercle Brugge 4 : 0 Tubize AFC 1.58 3.78 4.84
20:30 Lierse SK 2 : 1 Union St-Gilloise 1.97 3.24 3.49
 Fußball Bosnien Premier Liga 2017/2018
16:00 Radnik Bijeljina 1 : 4 Sarajevo FK 3.80 3.28 1.85
16:00 Celik Zenica 2 : 0 Gabela GOSK 1.84 3.26 3.83
17:00 Zrinjski Mostar 2 : 0 Mladost Doboj Kakanj 2.07 3.69 5.33
19:00 Sloboda Tuzla 1 : 0 Zeljeznicar Sarajevo 4.10 3.18 1.81
 Fußball Bulgarien A PFG 2017/2018
14:30 Slavia Sofia 4 : 0 Vitosha Bistritsa 1.64 3.53 4.70
16:30 Pirin 1922 Blagoevgrad 1 : 2 Vereya Stara Zagora 2.47 2.98 2.73
19:00 Černo More Varna 0 : 0 Etar Veliko Tarnovo 1.77 3.42 4.10
 Fußball Chile Primera Division 2017
01:30 Colo Colo 3 : 0 San Luis de Quillota 1.45 4.16 5.99
20:30 Antofagasta 0 : 0 Unión Espaňola 1.97 3.23 3.56
23:00 Universidad de Chile - : - Everton 1.66 3.63 4.33
 Eishockey CHL Kontinental Hockey League 2017/2018
12:00 Spartak Moskva 6 : 2 Red Star Kunlun 2.72 3.85 2.26
12:30 Novosibirsk 2 : 1 Dynamo Minsk 2.17 3.70 2.95
13:00 Omsk 6 : 1 Jaroslavl 2.22 3.75 2.83
13:00 Barys Astana 3 : 5 Dynamo Moskva 2.30 4.02 2.62
13:30 Yugra Khanty-Mansiysk 1 : 9 Petrohrad 7.33 6.42 1.28
16:00 Vitiaz Chekhov 4 : 0 Slovan Bratislava 1.90 4.28 3.22
16:00 Nižnyj Novgorod 1 : 0 ot Chabarovsk Amur 1.62 4.25 4.50
16:00 Čerepovec 3 : 2 ot(p) Admiral Vladivostok 2.35 3.83 2.60
 Handball CL Champions League M 2017/2018
15:00 Chehovski Medvedi Moskau 24 : 28 Montpellier HB 7.83 16.33 1.12
17:00 Elverum 27 : 32 Skjern 5.00 12.67 1.25
17:30 Veszprém Fotex KC 28 : 27 Flensburg-Handewitt 1.13 15.00 7.67
17:30 Vardar Vatrost. Skopje 27 : 23 Nantes HBC 1.36 10.83 4.00
18:00 FC Barcelona 31 : 29 Kristianstad IFK 1.01 24.33 20.00
19:00 Dinamo Bucuresti 26 : 27 Velenje Gorenje RK 1.68 9.33 2.65
20:00 Croatia Osiguranje-Zagreb 23 : 28 Szeged Pick SC 2.53 9.17 1.73
 Handball Dänemark 1st League M 2017/2018
15:00 Arhus GF 29 : 22 Tonder TM 1.08 16.67 9.58
16:00 Svendborg TGI 24 : 21 Nordsjalland Handbold 1.07 18.00 10.92
 Handball Dänemark 1st League W 2017/2018
16:10 Viborg HK 26 : 29 FCK Handbold 1.71 9.00 2.57
 Eishockey Dänemark SuperBest-ligaen 2017/2018
19:00 Esbjerg 4 : 5 Herning 2.17 4.26 2.52
 Fußball Dänemark Superligaen 2017/2018
16:00 Horsens 2 : 0 Helsingor 1.99 3.33 3.78
18:00 FC Kobenhavn 4 : 0 Silkeborg IF 1.33 4.81 9.00
 Fußball Deutschland 2. Liga 2017/2018
13:00 St. Pauli 1 : 2 Düsseldorf 2.30 3.22 3.05
13:00 Regensburg SG 2 : 1 Braunschweig 2.81 3.24 2.44
13:00 Bielefeld 1 : 1 Heidenheim 1.FC 2.18 3.29 3.18
 Fußball Deutschland 3. Liga 2017/2018
14:00 Wehen SV 5 : 0 Sonnenhof Grossaspach SG 1.67 3.63 4.75
14:00 Hallescher 0 : 3 Chemnitzer 2.04 3.18 3.57
14:00 Osnabrück 1 : 1 W 2.51 3.12 2.73
14:00 Fortuna K 0 : 3 Lotte Sportfreunde 2.12 3.18 3.33
14:00 Unterhaching 4 : 0 Meppen 1.73 3.63 4.30
14:00 Zwickau 1 : 0 Bremen (Am.) 1.98 3.28 3.62
14:00 Jena 2 : 0 Münster 2.43 2.99 2.93
 Fußball Deutschland Bundesliga 2017/2018
15:30 Leipzig 2 : 1 Frankfurt Eintracht 1.72 3.58 5.10
15:30 Hoffenheim 2 : 0 Schalke 04 2.08 3.56 3.33
15:30 Mainz 1 : 0 Hertha Berlin 2.15 3.26 3.40
15:30 Stuttgart 0 : 0 Augsburg FC 2.12 3.33 3.47
15:30 Werder Bremen 0 : 0 Freiburg 1.73 3.81 4.53
18:30 Dortmund 6 : 1 Mönchengladbach 1.39 4.98 7.40
 Handball Deutschland Bundesliga W 2017/2018
16:00 Buxtehuder SV 30 : 21 Dortmund Borussia 1.42 10.50 3.30
17:30 R 17 : 25 Bad Wildungen/Fr./B. 3.75 10.50 1.35
17:30 Bensheim-Auerbach HSG 19 : 22 Bayer 04 Leverkusen TSV 5.00 12.00 1.22
18:00 Thüringer HC 39 : 25 Neckarsulmer 1.01 21.00 16.00
18:00 Blomberg-Lippe HSG 19 : 26 Metzingen TuS 4.40 12.00 1.26
19:00 Nellingen TV 28 : 26 Frisch Auf Göppingen 3.50 10.00 1.40
 Fußball Ecuador Primera A 2017
18:30 Independiente José Terán 2 : 1 Clan Juvenil 1.42 4.45 6.05
 Fußball England Championship 2017/2018
16:00 Reading 1 : 1 Hull 2.49 3.33 2.76
16:00 Leeds 3 : 2 Ipswich 1.61 3.72 5.90
16:00 Q.P.R. 0 : 0 Burton 1.85 3.44 4.31
16:00 Fulham 1 : 1 Middlesbrough 2.30 3.31 3.08
16:00 Wolverhampton 2 : 1 Barnsley 1.40 4.65 7.65
16:00 Preston 0 : 0 Millwall 1.96 3.34 3.90
16:00 Derby 1 : 1 Birmingham 1.76 3.53 4.82
16:00 Sunderland 1 : 2 Cardiff 2.76 3.06 2.67
16:00 Norwich 0 : 0 Bristol City 2.12 3.44 3.29
16:00 Bolton 0 : 3 Brentford 3.45 3.54 2.04
18:30 Aston Villa 2 : 1 Nottingham 1.71 3.53 4.97
 Fußball England Conference National 2017/2018
16:00 Tranmere 0 : 1 Wrexham 1.60 3.54 5.10
16:00 Fylde 1 : 2 Woking 1.65 3.84 4.23
16:00 Maidstone United 2 : 2 Gateshead 1.95 3.46 3.32
16:00 Torquay 0 : 1 Macclesfield 2.94 3.32 2.16
16:00 Chester 2 : 0 Maidenhead United 2.81 3.31 2.22
16:00 Hartlepool 1 : 2 Eastleigh 2.25 3.22 2.84
16:00 Boreham Wood 0 : 1 Ebbsfleet United 2.23 3.26 2.87
16:00 Sutton UTD 3 : 2 Barrow 1.81 3.35 3.90
16:00 Halifax 2 : 1 Bromley 2.06 3.22 3.29
16:00 Guiseley 1 : 1 Dover Athletic 3.27 3.28 2.03
16:00 Alderschot 2 : 2 Leyton 1.91 3.43 3.45
16:00 Solihull 2 : 2 Dagenham & Redbridge 4.25 3.62 1.69
 Fußball England League One 2017/2018
16:00 Peterborough 3 : 2 Wigan 3.20 3.44 2.11
16:00 Charlton 1 : 1 Bury 1.67 3.74 4.88
16:00 Scunthorpe 2 : 0 Portsmouth 2.41 3.24 2.85
16:00 Oxford 1 : 2 Walsall 1.94 3.41 3.76
16:00 Bristol Rovers 3 : 1 Blackpool 2.19 3.44 3.02
16:00 Rotherham 5 : 1 Oldham 1.57 3.89 5.60
16:00 Northampton 0 : 1 Bradford 3.34 3.31 2.10
16:00 Rochdale 3 : 0 Gillingham 1.60 3.87 5.15
16:00 Fleetwood Town 2 : 4 Southend 2.39 3.14 2.97
16:00 Shrewsbury 1 : 1 Blackburn 2.87 3.23 2.40
16:00 Plymouth 0 : 3 Doncaster 3.23 3.30 2.17
 Fußball England League Two 2017/2018
16:00 Stevenage 2 : 1 Morecambe 1.79 3.60 4.16
16:00 Luton 1 : 0 Chesterfield 1.45 4.43 6.35
16:00 Barnet 1 : 2 Crawley Town 1.84 3.54 3.96
16:00 Notts County 4 : 1 Lincoln 2.78 3.17 2.47
16:00 Crewe 0 : 5 Carlisle 2.62 3.38 2.49
16:00 Accrington Stanley 1 : 1 Cheltenham 1.91 3.66 3.52
16:00 Newport 1 : 0 Grimsby 2.09 3.40 3.27
16:00 Coventry 2 : 0 Exeter 2.19 3.26 3.16
16:00 Yeovil 1 : 1 Port Vale 2.59 3.15 2.69
16:00 Mansfield 2 : 1 Cambridge 1.93 3.30 3.92
16:00 Colchester 1 : 2 Wycombe 2.73 3.34 2.42
 Fußball England Premiership 2017/2018
13:30 West Ham 2 : 3 Tottenham 5.55 4.15 1.59
16:00 Swansea 1 : 2 Watford 2.28 3.23 3.31
16:00 Everton 2 : 1 Bournemouth 1.74 3.66 4.96
16:00 Stoke 0 : 4 Chelsea 6.40 4.23 1.53
16:00 Burnley 0 : 0 Huddersfield 2.27 3.12 3.43
16:00 Southampton 0 : 1 Manchester United 4.67 3.54 1.80
16:00 Manchester City 5 : 0 Crystal Palace 1.12 9.40 20.20
18:30 Leicester 2 : 3 Liverpool 4.21 3.93 1.78
 Fußball Estland Meistriliiga 2017
12:00 Flora Paide 4 : 2 Tulevik Viljandi 1.78 3.80 3.59
12:00 Levadia Tallin 3 : 1 Tammeka Tartu 1.11 7.63 13.31
15:00 Kalev Sillamae 1 : 2 Flora Tallin 9.35 5.75 1.21
15:00 Kalju Nomme JK 6 : 0 P 1.02 12.20 25.20
 Eishockey Finnland SM Liiga 2017/2018
14:00 Ässät Pori 3 : 1 Kalpa Kuopio 2.08 3.95 2.93
16:00 Hämeenlinna 3 : 1 Kärpät 2.23 3.88 2.70
16:00 Tappara Tampere 5 : 4 ot Sport Vaasa 1.43 5.05 5.75
16:00 Jyp Jyväskylä 2 : 3 TPS Turku 1.77 4.20 3.63
16:00 Jukurit Mikkeli 2 : 3 ot(p) Ilves Tampere 2.43 3.88 2.48
17:30 KooKoo Kouvola 3 : 2 Lukko Rauma 2.28 3.97 2.60
17:30 Saipa 2 : 1 ot IFK Helsinki 2.87 3.98 2.12
 Fußball Finnland Suomen Cup 2017
16:00 SJK Seinajoki 0 : 1 HJK Helsinki 5.19 3.72 1.55
 Fußball Frankreich Ligue 1 2017/2018
17:00 Montpellier 0 : 0 Paris SG 13.80 6.15 1.21
20:00 Lyon 3 : 3 Dijon 1.31 5.50 8.85
20:00 Caen 1 : 0 Amiens 1.90 3.26 4.43
20:00 Bordeaux 3 : 1 Guingamp 1.67 3.65 5.30
20:00 Metz 0 : 1 Troyes 2.07 3.24 3.69
 Fußball Frankreich Ligue 2 2017/2018
15:00 Lorient 0 : 0 Nancy 1.69 3.45 4.82
 Fußball Frankreich National 2017/2018
15:35 Grenoble 0 : 2 Cholet 2.15 3.04 3.19
 Basketball Frankreich Pro A M 2017/2018
18:30 Elan Chalon 62 : 82 Pau Orthez 1.55 12.00 2.50
19:30 Hyeres Toulon 70 : 63 Boulazac 1.52 12.00 2.60
20:00 Paris-Levallois 71 : 77 Monaco 2.20 12.00 1.68
20:00 Le Mans 103 : 63 Gravelines Dunkerque 1.45 12.00 2.80
20:00 Nanterre 92 : 86 Bourg Jeunesse 1.16 15.00 5.00
 Handball Frankreich Pro A W 2017/2018
20:00 Dijon 29 : 31 Le Havre 1.63 9.00 2.67
20:00 Besancon ESBF 24 : 24 Brest Bretagne 2.58 8.67 1.67
20:30 Bourg de Peage 28 : 40 Nice 4.07 11.00 1.30
20:40 Toulon/Saint-Cyr 18 : 26 Issy Les Moulineaux 2.60 9.42 1.63
 Fußball Griechenland Super League 2017/2018
15:00 Apollon Smirnis 0 : 1 Platanias 2.07 3.01 4.03
17:15 Atromitos Athinon FC 3 : 0 Lamia 1.72 3.21 5.75
19:30 Panetolikos 2 : 0 Panathinaikos Athens 3.22 2.99 2.40
 Fußball Holland Eredivisie 2017/2018
18:30 Willem Tilburg 1 : 2 Heerenveen 3.19 3.38 2.14
19:45 Heracles 2 : 1 Roda Kerkade 1.70 3.86 4.41
19:45 Feyenoord 0 : 2 NAC Breda 1.16 6.90 15.00
20:45 ADO den Haag 1 : 0 Sparta Rotterdam 2.06 3.34 3.43
 Fußball Israel Ligat Al 2017/2018
17:00 Hapoel Acre 1 : 1 Bnei Yehuda 2.91 3.05 2.31
18:00 Hapoel Ranana 0 : 3 Hapoel Ashkelon 2.29 3.05 3.00
18:15 Ashdod SC 0 : 3 Maccabi Netanya 2.87 3.11 2.31
19:30 Hapoel Haifa 1 : 1 Hapoel Beer Sheva 4.62 3.50 1.67
 Fußball Italien Serie A 2017/2018
15:00 AS Roma 3 : 1 Udinese 1.23 6.05 12.00
18:00 Spal 2 : 3 Napoli 12.60 6.55 1.21
20:45 Juventus 4 : 0 AC Torino 1.37 4.85 8.05
 Fußball Italien Serie B 2017/2018
15:00 Novara 1 : 2 Avellino 1.91 3.09 4.24
15:00 Brescia 2 : 2 Foggia 2.63 3.15 2.60
15:00 Venezia AC 0 : 1 Parma 2.25 2.93 3.40
15:00 Entella 0 : 0 Carpi 2.42 2.89 3.09
15:00 Bari 3 : 0 Ternana 1.64 3.44 5.45
15:00 Salernitana 2 : 0 Spezia 2.12 2.95 3.64
15:00 Empoli AC 0 : 1 Cittadella 1.76 3.52 4.33
15:00 Perugia 1 : 0 Frosinone 2.27 3.05 3.14
15:00 Cremonese 0 : 0 Pescara 2.05 3.57 3.19
 Fußball Japan J League 2017
07:00 Sapporo 2 : 2 Niigata 1.98 3.25 3.54
08:00 Shimizu 1 : 3 Hiroshima 2.65 3.20 2.43
09:00 Urawa 2 : 2 Sagan Tosu 1.49 4.05 5.55
09:00 Reysol 4 : 1 Tokyo 1.83 3.34 3.93
09:00 Jubilo 2 : 1 Omiya Ardija 1.88 3.28 3.78
11:00 Ventforet Kofu 3 : 2 Marinos 3.55 2.93 2.07
12:00 Cerezo 1 : 4 Vegalta Sendai 1.61 3.65 4.92
12:00 Vissel Kobe 0 : 0 Kawasaki F. 4.00 3.45 1.80
12:00 Kashima 2 : 1 Gamba 1.71 3.60 4.21
 Fußball Kolumbien Primera División 2017
02:45 Corporación Tuluá 1 : 3 Jaguares de Cordoba 1.97 3.10 3.65
21:00 Expreso Rojo Cartagena 0 : 3 La Equidad 3.31 2.90 2.21
23:00 Independiente Medellín - : - Itagui Ditaires 1.48 3.85 5.81
 Fußball Kroatien 1. HNL 2017/2018
17:00 Cibalia Vinkovci 1 : 2 INKER Zaprešič 3.46 3.29 2.58
19:00 Slaven Belupo 1 : 1 HNK Rijeka 7.81 3.75 1.42
 Handball Kroatien 1.liga M 2017/2018
18:00 Gorica 29 : 26 Zamet - - -
18:00 Metalac 21 : 24 Varteks Di Caprio - - -
18:00 Karlovac 35 : 31 Dubrava - - -
19:00 Spacva Vinkovci 19 : 20 Poreč - - -
20:00 Umag 34 : 28 Sesvete - - -
 Basketball Litauen 1st League M 2017/2018
16:15 Juventus-LKSK Utenos 75 : 82 Lietuvos Rytas 3.40 13.00 1.28
17:00 Alytus Alita 55 : 69 Lietkabelis 5.00 14.00 1.14
 Fußball Mazedonien First League 2017/2018
15:30 Renova FK 0 : 0 Shkupi Skopje 1.61 3.40 5.42
 Fußball Mexiko Primera Division 2017/2018
Postp. Puebla - : - Monterey 3.90 3.50 1.74
Postp. Atlas - : - Atl. Morelia 2.19 3.33 2.80
 Fußball Moldavien Divizia Nationala 2017/2018
15:30 Sfintul Gheorghe 0 : 0 Zimbru Kišiněv - - -
15:30 Dinamo Cioburciu 1 : 0 Petrocub Sarata-Galbena - - -
17:00 Serif Tiraspol 6 : 3 Dacia Kišiněv - - -
 Eishockey Norwegen Eliteserien 2017/2018
16:00 Sapsborg Sparta 1 : 4 Frisk/Asker 2.53 4.27 2.20
18:00 Lillehammer 2 : 1 ot Valerenga Oslo 1.68 4.60 3.60
 Handball Norwegen Eliteserien M 2017/2018
18:00 Falk 26 : 21 Notteroy 1.70 8.50 2.52
 Fußball Norwegen Tippeligaen 2017
18:00 Haugar Haugesund 2 : 1 Viking Stavanger 1.80 3.52 3.93
 Fußball Österreich Bundesliga 2017/2018
16:00 Rapid Wien 4 : 2 St. Andrä 1.45 4.18 6.30
18:30 St. Pölten 1 : 1 Fc Admira 2.80 3.27 2.38
18:30 LASK Linz 2 : 2 Mattersburg SV 1.83 3.40 4.09
18:30 Sturm Graz 0 : 0 SC Rheindorf Altach 1.58 3.73 5.54
 Eishockey Österreich Eishockey Liga 2017/2018
17:30 Znojmo 5 : 1 Dornbirn 1.79 4.58 3.23
19:15 Innsbruck 4 : 2 Székesfehérvár 1.64 4.70 3.70
 Handball Österreich HLA M 2017/2018
19:00 UHK Krems 28 : 27 Schwaz 2.28 8.33 1.85
19:00 HSG Graz 26 : 28 Austria Fivers Aon 4.25 9.83 1.31
 Handball Polen 1.liga M 2017/2018
13:00 Wybrzeze Gdansk 25 : 26 Pulawy Wisla-Azoty 5.50 12.33 1.19
18:00 Pogon Szczecin 20 : 30 Zabrze KS 4.90 11.67 1.23
18:00 Piotrkowianin-Kiper 33 : 26 Kalisz MKS 1.37 9.88 3.70
18:00 Elblag Darad 29 : 20 Legionowo KPR 1.60 9.17 2.72
18:00 Chroby Glogow AMD 38 : 25 Spojnia Gdynia 1.07 15.75 9.63
18:30 Gwardia Opole 20 : 32 Wisla Plock SSA 13.58 20.33 1.02
 Fußball Polen Ekstraklasa 2017/2018
15:30 Nieciecza LKS 2 : 1 Lechia Gdaňsk 2.83 3.16 2.41
18:00 Pogon Szczecin 1 : 2 Górnik Zabrze 2.00 3.27 3.58
20:30 Korona Kielce 2 : 1 Wisla Kraków 2.39 3.24 2.83
 Basketball Polen Ekstraklasa W 2017/2018
18:00 Gdynia GTK 82 : 58 Poznan AZS - - -
18:00 Ostrovia Ostr 49 : 78 Gorzow Wielkopolski PWSZ 5.50 - 1.11
18:00 Torun 77 : 58 Sosnowiec KS 1.13 - 4.85
 Fußball Polen I Liga 2017/2018
12:45 Odra Opole 1 : 0 Stal Mielec 2.19 3.16 2.99
16:00 Górnik Leczna 1 : 0 Tychy GKS 2.56 3.17 2.49
16:00 Rakow Czestochowa 3 : 1 Bytovia Bytów 2.08 3.30 3.15
16:00 Puszcza Niepo 3 : 1 Stomil Olsztyn 2.00 3.25 3.39
17:00 Chojniczanka Chojnice 0 : 0 Olimpia Grudziądz 1.77 3.44 4.12
18:00 Zaglebie Sosnowiec 0 : 1 Wigry Suwałki 1.84 3.42 3.74
19:00 Miedz Legnica 0 : 2 Podbeskidzie Bielsko-Biała 1.66 3.52 4.66
 Fußball Portugal Liga Sagres 2017/2018
17:00 Estoril 0 : 2 Chaves 3.84 3.58 3.14
19:15 Moreirense 1 : 1 Sporting Lisabon 9.65 4.74 1.31
21:30 Benfica Lisabon 2 : 0 Ferreira 1.12 7.25 18.25
 Fußball Portugal Taça de Portugal 2017/2018
16:00 Mirandela 1 : 2 Coimbra 4.10 3.54 1.73
16:00 Gondomar 0 : 1 Santa Clara 5.24 3.40 1.62
20:00 Ideal 1 : 0 Almodovar 1.44 4.30 5.74
 Fußball Rumänien Liga I 2017/2018
19:30 Concordia 2 : 1 Sepsi Sfantu Gheorghe 1.85 3.21 4.25
 Fußball Rumänien Liga II 2017/2018
10:00 Mioveni 3 : 2 Luceafarul Oradea 1.51 3.90 5.25
10:00 Balotesti 1 : 2 Stiinta Miroslava 1.48 4.27 5.25
10:00 Metaloglobus Bukure 4 : 0 ASA Targu Mures 2.23 3.40 2.80
10:00 Afumati 2 : 1 ASU Poli Timisoara 1.85 3.55 3.55
10:00 Buftea CS 2 : 1 Ripensia Timisoara 2.02 3.52 3.03
10:00 Hermannstadt Sibiu 2 : 0 Rapid Suceava 1.20 6.50 8.00
10:00 Pitesti SCM 1 : 0 Damila Maciuca 1.49 3.83 5.58
10:00 Dunarea Calarasi 3 : 1 Pandurii 1.51 3.98 5.25
11:00 Olimpia Satu Mare 1 : 0 Batrana Doamna UTA 3.22 3.33 2.00
 Fußball Russland Premier League 2017/2018
15:30 Dynamo Moskva 0 : 0 CSKA Moskva 4.48 3.42 1.89
18:00 Spartak Moskva 2 : 2 Makhachkala Anzhi 1.29 5.25 8.31
 Fußball Schotland First Division 2017/2018
16:00 Dumbarton 2 : 1 Caledonian Thistle 3.74 3.52 1.82
16:00 Brechin 0 : 3 Dunfermline 5.90 4.30 1.44
16:00 Falkirk FC 0 : 2 Livingston 2.20 3.33 2.91
16:00 Dundee Utd. 2 : 1 Greenock Morton 1.85 3.42 3.72
 Fußball Schotland Premier League 2017/2018
13:00 Glasgow Rangers 0 : 2 Celtic Glasgow 5.40 4.11 1.56
16:00 Kilmarnock FC 1 : 1 Dundee FC 2.44 3.29 2.76
16:00 St. Johnstone 2 : 1 Hamilton 1.84 3.46 4.07
16:00 Ross County 0 : 1 Hibernian 3.77 3.58 1.87
17:00 Partick Thistle 1 : 1 Hearts of Midlothian 3.40 3.30 2.08
 Fußball Schotland Scottish Cup 2017/2018
16:00 Lothian Hutchison 3 : 2 Inverurie - - -
16:00 Formartine Utd 2 : 1 Turriff United - - -
16:00 Brora Rangers FC 5 : 0 Girvan - - -
16:00 Clachnacuddin 8 : 0 Fort William - - -
16:00 Wick Academy FC 2 : 2 Stirling University - - -
16:00 Glenafton Athletic 4 : 0 Threave Rovers - - -
16:00 Edusport Academy 1 : 1 Rothes - - -
16:00 Civil Service Strollers 2 : 1 Strathspey Thistle - - -
16:00 Colville Park 2 : 1 Cumbernauld Colts - - -
16:00 Selkirk 4 : 0 Gretna - - -
16:00 Gala Fairydean 0 : 2 Keith FC - - -
16:00 Edinburgh University 2 : 1 Lossiemouth - - -
16:00 Deveronvale 3 : 1 Hawick Royal Albert - - -
16:00 Nairn County 1 : 0 Whithehill - - -
16:00 Fraserburgh 2 : 1 Forres Mechanics - - -
16:00 Banks O Dee FC 4 : 0 Huntly - - -
 Fußball Schotland Second Division 2017/2018
16:00 East Fife 3 : 0 Forfar 2.09 3.48 2.95
16:00 Stranraer 2 : 6 Arbroath 2.21 3.52 2.73
16:00 Alloa 2 : 5 Albion Rovers 1.84 3.64 3.52
16:00 Raith Rovers 2 : 0 Airdrieonians 1.32 4.72 7.50
16:00 Queen's Park FC 0 : 2 Ayr. United 4.66 3.61 1.63
 Fußball Schotland Third Division 2017/2018
16:00 Stirling Albion 3 : 2 Annan Athletic 2.01 3.62 3.04
16:00 Clyde 1 : 1 Cowdenbeath 1.62 3.90 4.34
16:00 Stenhousehuir 3 : 0 Berwick 1.74 3.73 3.86
16:00 Elgin 3 : 0 Montrose 2.26 3.52 2.65
16:00 Edinburgh City 0 : 3 Peterhead 4.93 3.93 1.56
 Fußball Schweiz Challenge League 2017/2018
19:00 Aarau FC 0 : 0 Rapperswil-Jona 1.42 4.18 6.38
 Eishockey Schweiz Nationalliga A 2017/2018
19:45 Kloten 4 : 0 Langnau 1.78 4.52 3.38
19:45 Zug 5 : 1 Davos 2.18 4.15 2.65
19:45 Biel Bienne EHC 2 : 5 Bern 2.68 4.29 2.12
19:45 Servette GE 2 : 4 Fribourg 2.18 4.24 2.60
19:45 Ambri Piota 4 : 5 ot SC Curych 3.57 4.75 1.70
19:45 Lausanne 4 : 1 Lugano 2.45 4.29 2.27
 Eishockey Schweiz Nationalliga B 2017/2018
17:00 GCK Lions 4 : 3 Academy Zug EVZ 1.82 4.50 2.98
17:30 Winterthur 6 : 5 ot Thurgau 1.92 4.47 2.75
17:45 Visp 3 : 4 ot Olten 2.20 4.33 2.37
 Fußball Schweiz Super League 2017/2018
19:00 Luzern 2 : 3 Lausanne 1.67 3.90 4.43
19:00 FC Basel 1 : 0 Fc Zürich 1.71 3.64 4.54
 Fußball Singapur S-League 2017
13:30 Sengkang Punggol 1 : 2 Brunei DPMM 1.70 3.85 3.90
13:30 Geylang United 1 : 3 Home United 3.84 4.00 1.68
 Fußball Slovenien 1. SNL 2017/2018
14:00 Triglav 1 : 3 Ankaran 1.87 3.32 3.69
16:00 Gorica Nova Gorica 2 : 1 Krsko Posavje 1.58 3.55 5.11
20:20 Celje Biostart Publikum 0 : 0 Olimpija Lublaň 3.88 3.42 1.81
 Handball Slovenien 1.liga M 2017/2018
18:00 Maribor RK 32 : 21 Termo Škofja Loka - - -
18:00 Adria Krka 29 : 26 Ribnica - - -
19:00 Dobova MRD 28 : 28 Šmartno 99 RD - - -
19:00 Jeruzalem Omrož 22 : 19 Trimo Trebnje - - -
 Fußball Slovenien 2. SNL 2017/2018
16:00 Ilirija 4 : 1 Roga - - -
16:00 Tabor 0 : 2 Jadran Dekani - - -
16:00 Fužinar 3 : 0 Ver - - -
16:00 Krka 2 : 1 Dob Roltek - - -
16:00 Kalcer Vodoterm 1 : 0 Nafta - - -
 Handball Slowakei Extraliga M 2017/2018
18:00 Nové Zámky 26 : 26 Pre - - -
18:00 Hlohovec 29 : 29 Považská Bystrica - - -
 Fußball Slowakei Super Liga 2017/2018
17:00 Nitra 0 : 0 Ružomberok 2.25 3.16 3.01
19:00 Zlaté Moravce 1 : 0 Podbrezova 1.85 3.25 3.88
19:00 Senica SH 1 : 3 Trnava 5.05 3.64 1.58
 Handball Spanien Asobal M 2017/2018
17:00 Frig. Morrazo Cangas 30 : 28 Darien Logrono 4.77 11.33 1.26
17:00 Granollers BM 28 : 33 Valladolid BM 1.26 12.00 4.72
18:30 Cuenca Ciudad Encantada 24 : 18 Benidorm 1.37 9.67 3.85
19:30 Zamora 27 : 29 Huesca BM 3.27 8.50 1.50
20:00 Anaitasuna Helvetia 33 : 32 SD Teucro 1.19 13.00 5.83
 Fußball Spanien La Liga 2017/2018
13:00 Atletico Madrid 2 : 0 FC Sevilla 1.59 3.79 6.05
16:15 Alavés 1 : 2 Real Madrid 15.70 7.80 1.16
18:30 Fc Malaga 3 : 3 Athletic Bilbao 3.06 3.25 2.38
20:45 Girona FC 0 : 3 FC Barcelona 12.00 6.38 1.21
 Fußball Spanien Liga BBVA 2017/2018
16:00 Reus 0 : 0 Osasuna 2.56 2.91 2.87
18:00 Granada 3 : 1 Cordoba 2.34 2.99 3.06
18:00 Sporting Gijon 1 : 0 Lorca 1.52 3.83 6.20
20:00 Tenerife CD 4 : 0 Alcorcón 1.86 2.99 4.66
 Fußball Spanien Segunda B - Group I 2017/2018
16:00 Celta Vigo B 2 : 1 Rapido Bouzas 1.65 3.58 4.50
 Fußball Spanien Segunda B - Group II 2017/2018
16:00 Arenas de Getxo 1 : 1 Barakaldo 2.53 3.10 2.54
18:00 San Sebastian Real B 0 : 1 Burgos Real 2.33 3.19 2.74
 Fußball Spanien Segunda B - Group III 2017/2018
18:00 Valencia FC B 2 : 2 Ontinyent 1.70 3.40 4.35
 Fußball Sweden Allsvenskan 2017
14:00 Halmstad BK 2 : 1 Norrkoping 4.06 3.62 1.78
 Eishockey Sweden Allsvenskan 2017/2018
18:00 Sodertalje SK 1 : 4 Tingsryds AIF 2.27 4.00 2.60
18:00 Modo 3 : 1 V 1.50 4.92 4.98
 Eishockey Sweden Elitserien 2017/2018
15:15 Rogle BK 2 : 7 Skelleftea AIK 4.85 4.77 1.53
15:15 Malmo IF 5 : 1 Brynas Gavle 2.21 4.17 2.67
15:15 HV 71 0 : 2 Linköpings 2.08 4.12 2.90
15:15 Vaxjö Lakers HC 2 : 1 Örebro HK 1.63 4.50 4.20
18:00 Lulea HF 2 : 1 ot(p) Djurgarden IF 2.17 4.05 2.78
18:00 Karlskrona HK 3 : 0 Mora IK 2.07 4.03 2.95
19:00 Farjestad 7 : 4 Frolunda 2.42 4.07 2.45
 Fußball Sweden Superettan 2017
14:00 Degerfors 3 : 1 IK Frej 1.75 3.60 3.92
16:00 Varbergs BoIS FC 1 : 0 Dalkurd FF 3.50 3.26 1.96
16:00 Brommapojkarna 3 : 1 Atvidabergs FF 1.23 5.50 8.63
 Fußball Tschechei 1. liga 2017/2018
17:00 Olomouc 3 : 0 Dukla Praha FK 1.84 3.36 3.86
17:00 Bohemians 1905 0 : 1 Jablonec 2.49 3.05 2.72
17:00 Zlín 1 : 1 Slavia Praha 3.92 2.88 2.02
18:00 Mladá Boleslav 0 : 2 Plzeň Viktoria 2.83 3.17 2.34
 Eishockey Tschechei 1st League 2017/2018
16:00 Kladno 2 : 1 ot Ústí n. Labem 1.40 5.08 4.93
17:00 České Budějovice 5 : 3 Prostějov 1.46 4.92 4.37
17:00 P 2 : 4 Třebíč 1.75 4.32 3.23
17:00 Litoměřice 4 : 3 ot Vsetín 2.09 4.22 2.55
17:00 Karlovy Vary 8 : 1 Benátky 1.46 4.92 4.43
17:30 Slavia Praha 0 : 2 Fr 2.20 4.17 2.43
17:30 Havířov 4 : 1 Kadaň 1.42 5.08 4.77
 Fußball Tschechei 2. liga 2017/2018
10:15 Pardubice Tesla 3 : 1 Žižkov Viktoria 1.76 3.50 3.95
Postp. Frýdek-Místek VP - : - Olympia Hradec Králové 2.18 3.16 2.97
18:00 Opava 3 : 1 Vlašim 1.52 3.93 5.00
18:00 Vítkovice 2 : 3 Třinec 2.24 3.19 2.86
 Eishockey Tschechei Extraleague 2017/2018
17:00 Třinec 5 : 1 Litvínov 1.46 5.08 5.07
 Handball Tschechei Extraleague M 2017/2018
18:00 Zubří 28 : 24 Strakonice 1.01 23.00 15.00
18:00 Kopřivnice 28 : 26 Plzeň 2.85 8.75 1.57
18:00 Jičín 22 : 20 Dukla Praha 2.30 8.25 1.85
 Fußball Türkey Super League 2017/2018
13:00 Kombassan Konyaspor 2 : 0 Akhisar Belediye Genclik Spor 2.61 3.14 2.70
15:30 Genclerbirligi 1 : 0 Istanbul Büyüksehir 4.43 3.47 1.79
18:30 Fenerbahce 2 : 1 Besiktas 2.50 3.36 2.74
 Fußball Ukraine Premier League 2017/2018
13:00 Zirka Kirovohrad 2 : 4 Shahtior Donetsk 12.60 5.44 1.19
18:30 Dinamo Kiev 0 : 0 Veres Rivne 1.24 5.14 9.65
 Fußball Ungarn NB I 2017/2018
Postp. Vasas Budapest - : - Szombathelyi Haladás 1.88 3.37 3.74
18:00 Debrecen 3 : 0 Puskás Akadémia 2.38 3.21 2.73
18:00 Paksi FC 1 : 0 Balmaz 1.93 3.39 3.49
18:00 Ferencvárosi TC 2 : 0 Diósgyőri VTK 1.43 4.16 6.25
18:15 Mezokovesd Zsory 2 : 4 Újpest Budapest 3.39 3.27 2.02
20:30 Fc Fehérvár 1 : 1 Budapest Honvéd 1.92 3.35 3.45
 Fußball Uruguay Primera Division 2017
21:00 River Plate (URU) 3 : 1 Rampla Juniors 2.13 3.22 3.21
21:00 Liverpool Montevideo 1 : 2 Boston River 2.35 3.24 2.79
 Fußball USA MLS 2017
21:00 New York City FC 1 : 1 Houston Dynamo 1.82 3.74 3.78
23:00 New England Revolution - : - Toronto FC 2.45 3.43 2.60
 Fußball Venezuela Primera Division 2017
21:00 Deportivo Zulia 1 : 0 Aragua FC 2.14 3.19 3.09
23:00 Carabobo FC - : - Zulia Maracaibo 1.65 3.53 4.48
 Fußball Wales Premier League 2017/2018
15:30 Connah's Quay 1 : 0 Cardiff MU 1.66 3.67 4.52
15:30 Prestatyn Town 0 : 0 Newtown AFC 2.49 3.40 2.47
18:15 Aberystwyth Town 2 : 3 Bangor City 3.83 3.84 1.73
 Fußball Weißrussland Premier League 2017
17:00 BATE Borisov 6 : 0 Slutsk 1.25 4.64 10.60
18:00 Shakhtsyor Salihorsk 4 : 0 Isloch Minsk 1.12 7.00 18.00